Ebeltoft, Denmark
Current Conditions -  °F | °C
As of 2:20 AM on Wednesday 22 Oct 2014 (Local Time) from EKAH Reporting Station
Overcast Overcast  
Wind Chill: 52°   Ceiling: 3400
Heat Index: 52°   Visibility: 6mi
Dew Point: 48°   Wind: 3mph
Humidity: 88%   Direction: 190°S
Pressure: 29.41"   Gusts: NA
Location:  56.19°N, 10.68°E
Report Text: EKAH 220020Z AUTO 19003KT 9999NDV OVC034/// 11/09 Q0996
Loading
Personal Weather Stations






























Interactive Weather Map
Tropical Storm Tracking
New forecast layout! Learn more

10-Day Weather Forecast

Advertisements
Track Severe Weather on mobile